Time;durP1;ratioP1;P1;durP2;ratioP2;P2;SDS_P1;SDS_P2;PMS_P1;PMS_P2;Temp;Humidity;BMP_temperature;BMP_pressure;BME280_temperature;BME280_humidity;BME280_pressure;Samples;Min_cycle;Max_cycle;Signal;HPM_P1;HPM_P2
2021/01/23 00:04:30;;;;;;;42.37;20.07;;;;;;;5.55;66.35;97471.48;259733;1105;115040;-63
2021/01/23 00:09:33;;;;;;;38.90;19.67;;;;;;;5.63;66.72;97469.17;259800;1105;115174;-67
2021/01/23 00:14:36;;;;;;;36.70;19.37;;;;;;;5.79;66.95;97450.52;259729;1105;115325;-68
2021/01/23 00:19:39;;;;;;;37.13;19.37;;;;;;;5.92;66.33;97444.31;259743;1105;115173;-69
2021/01/23 00:24:41;;;;;;;35.40;18.70;;;;;;;6.00;67.18;97442.94;259735;1105;115020;-70
2021/01/23 00:29:44;;;;;;;33.97;19.60;;;;;;;6.12;67.24;97444.74;259649;1105;115178;-64
2021/01/23 00:34:46;;;;;;;37.85;17.70;;;;;;;6.11;66.69;97445.67;259738;1105;114816;-67
2021/01/23 00:39:49;;;;;;;37.93;20.07;;;;;;;6.06;65.80;97445.16;258455;1105;115843;-67
2021/01/23 00:44:58;;;;;;;33.47;17.83;;;;;;;6.01;65.70;97450.77;259748;1105;115647;-68
2021/01/23 00:50:00;;;;;;;30.30;16.83;;;;;;;5.92;66.57;97438.16;259696;1108;115794;-70
2021/01/23 00:55:07;;;;;;;33.80;17.70;;;;;;;5.85;65.48;97429.82;259671;1105;115572;-70
2021/01/23 01:00:16;;;;;;;31.40;17.10;;;;;;;5.89;67.04;97430.45;259724;1105;115092;-71
2021/01/23 01:05:20;;;;;;;30.03;16.80;;;;;;;5.92;66.35;97428.48;259703;1105;115263;-69
2021/01/23 01:10:22;;;;;;;29.13;15.70;;;;;;;6.05;67.35;97420.56;259631;1105;115201;-67
2021/01/23 01:15:24;;;;;;;27.07;15.40;;;;;;;6.25;66.67;97420.94;259684;1105;115022;-69
2021/01/23 01:20:34;;;;;;;28.17;14.67;;;;;;;6.44;67.11;97407.27;259686;1105;115094;-70
2021/01/23 01:25:37;;;;;;;22.75;13.08;;;;;;;6.64;66.60;97404.88;259720;1105;115459;-69
2021/01/23 01:30:39;;;;;;;22.70;11.30;;;;;;;6.85;68.00;97399.82;259790;1105;115119;-69
2021/01/23 01:35:42;;;;;;;16.00;10.00;;;;;;;6.97;67.01;97384.88;259792;1105;115190;-64
2021/01/23 01:40:44;;;;;;;21.27;11.53;;;;;;;7.01;66.13;97385.48;259777;1105;115093;-64
2021/01/23 01:45:46;;;;;;;18.77;10.77;;;;;;;7.01;66.59;97372.27;259726;1105;115024;-64
2021/01/23 01:50:51;;;;;;;16.70;10.65;;;;;;;7.01;65.98;97375.75;259802;1105;115046;-63
2021/01/23 01:55:54;;;;;;;14.50;10.10;;;;;;;7.01;65.81;97388.13;259834;1105;115273;-63
2021/01/23 02:00:56;;;;;;;17.32;10.58;;;;;;;7.01;65.50;97372.27;259925;1105;114812;-64
2021/01/23 02:06:05;;;;;;;20.53;11.30;;;;;;;7.03;66.39;97375.62;259718;1105;115554;-62
2021/01/23 02:11:32;;;;;;;21.43;12.37;;;;;;;7.06;65.91;97376.23;259634;1105;115366;-64
2021/01/23 02:16:45;;;;;;;19.80;11.50;;;;;;;7.10;66.40;97382.17;259628;1105;115576;-64
2021/01/23 02:22:19;;;;;;;22.60;12.57;;;;;;;7.05;65.38;97363.13;259739;1105;116786;-67
2021/01/23 02:27:52;;;;;;;24.50;14.17;;;;;;;6.93;65.98;97366.68;259785;1105;115376;-66
2021/01/23 02:32:57;;;;;;;25.17;14.73;;;;;;;6.80;65.94;97359.67;259899;1105;114861;-67
2021/01/23 02:37:59;;;;;;;;;;;;;;;6.69;65.12;97350.83;259743;1105;115030;-65
2021/01/23 02:43:04;;;;;;;21.30;13.22;;;;;;;6.52;64.71;97349.42;259803;1105;104003;-67
2021/01/23 02:48:06;;;;;;;26.68;15.25;;;;;;;6.39;66.14;97345.05;259725;1105;114837;-67
2021/01/23 02:53:20;;;;;;;28.55;16.67;;;;;;;6.28;66.22;97355.52;259722;1105;115171;-65
2021/01/23 02:58:26;;;;;;;27.70;16.60;;;;;;;6.19;64.97;97342.16;259703;1105;115622;-65
2021/01/23 03:03:31;;;;;;;32.10;17.40;;;;;;;6.12;66.32;97332.02;259723;1105;114907;-63
2021/01/23 03:08:33;;;;;;;28.83;16.37;;;;;;;6.10;65.53;97330.44;259754;1105;115001;-67
2021/01/23 03:13:36;;;;;;;31.63;17.40;;;;;;;6.06;65.83;97332.45;259701;1105;114988;-66
2021/01/23 03:18:38;;;;;;;35.65;17.52;;;;;;;6.08;65.58;97329.69;259749;1105;115252;-67
2021/01/23 03:23:40;;;;;;;35.77;16.90;;;;;;;6.09;66.26;97323.48;258226;1105;114897;-70
2021/01/23 03:28:42;;;;;;;31.57;17.03;;;;;;;6.16;66.53;97330.00;259661;1108;115638;-65
2021/01/23 03:33:45;;;;;;;34.67;18.70;;;;;;;6.29;66.32;97316.77;259755;1103;114843;-67
2021/01/23 03:38:48;;;;;;;33.90;18.60;;;;;;;6.31;67.06;97314.84;259706;1105;115061;-68
2021/01/23 03:43:54;;;;;;;37.40;18.83;;;;;;;6.34;66.98;97302.25;259618;1105;114929;-75
2021/01/23 03:49:49;;;;;;;35.17;18.37;;;;;;;6.38;66.71;97311.63;257968;1105;115728;-69
2021/01/23 03:55:13;;;;;;;;;;;;;;;6.46;66.84;97304.97;259742;1105;114863;-69
2021/01/23 04:00:23;;;;;;;31.75;17.95;;;;;;;6.47;67.76;97294.27;259779;1105;103728;-70
2021/01/23 04:05:30;;;;;;;28.27;16.10;;;;;;;6.54;67.34;97299.95;259722;1105;114894;-69
2021/01/23 04:10:33;;;;;;;30.07;15.20;;;;;;;6.70;67.74;97289.94;259641;1105;115341;-70
2021/01/23 04:15:55;;;;;;;30.07;16.87;;;;;;;6.82;67.29;97286.36;259834;1105;115184;-70
2021/01/23 04:21:01;;;;;;;26.27;15.83;;;;;;;6.94;67.30;97289.06;259808;1105;115011;-70
2021/01/23 04:26:05;;;;;;;31.07;17.02;;;;;;;7.03;67.09;97285.70;259760;1105;114958;-69
2021/01/23 04:31:08;;;;;;;25.77;15.90;;;;;;;7.02;67.25;97271.63;259764;1105;116000;-69
2021/01/23 04:36:10;;;;;;;30.60;17.63;;;;;;;7.02;66.21;97268.98;259378;1105;115313;-68
2021/01/23 04:41:12;;;;;;;29.77;17.10;;;;;;;6.99;66.91;97268.38;259625;1105;115838;-67
2021/01/23 04:46:18;;;;;;;31.60;17.83;;;;;;;6.96;66.67;97273.90;259381;1105;114956;-73
2021/01/23 04:51:21;;;;;;;28.60;16.90;;;;;;;6.92;66.11;97259.23;259706;1105;115419;-73
2021/01/23 04:56:27;;;;;;;29.97;17.70;;;;;;;6.82;66.47;97264.37;259769;1105;115752;-67
2021/01/23 05:01:29;;;;;;;29.70;17.97;;;;;;;6.77;66.26;97259.44;259749;1105;115062;-67
2021/01/23 05:06:34;;;;;;;24.90;16.53;;;;;;;6.76;67.19;97243.67;259750;1105;115962;-69
2021/01/23 05:11:47;;;;;;;28.63;18.87;;;;;;;6.71;66.53;97238.75;259707;1105;115700;-69
2021/01/23 05:16:50;;;;;;;32.27;18.73;;;;;;;6.68;67.41;97238.13;259741;1105;115214;-68
2021/01/23 05:22:02;;;;;;;28.70;18.03;;;;;;;6.71;67.59;97241.39;259732;1105;115282;-69
2021/01/23 05:27:06;;;;;;;30.40;17.97;;;;;;;6.73;67.29;97241.29;259711;1105;115044;-69
2021/01/23 05:32:16;;;;;;;30.10;18.00;;;;;;;6.70;66.97;97234.42;259889;1105;114832;-69
2021/01/23 05:37:43;;;;;;;29.23;17.93;;;;;;;6.72;67.41;97236.94;259675;1105;115532;-68
2021/01/23 05:43:39;;;;;;;26.37;18.35;;;;;;;6.73;67.36;97243.94;259799;1105;115771;-68
2021/01/23 05:48:46;;;;;;;33.42;18.32;;;;;;;6.71;67.14;97244.03;259272;1105;114757;-68
2021/01/23 05:53:49;;;;;;;29.03;18.60;;;;;;;6.69;67.11;97231.88;259808;1105;114671;-69
2021/01/23 05:58:51;;;;;;;29.00;17.13;;;;;;;6.74;67.20;97240.33;259731;1105;114908;-69
2021/01/23 06:03:58;;;;;;;30.37;18.30;;;;;;;6.76;67.45;97222.53;259809;1105;115176;-69
2021/01/23 06:09:00;;;;;;;29.27;18.52;;;;;;;6.73;67.51;97236.84;259577;1105;115058;-69
2021/01/23 06:14:02;;;;;;;26.23;15.03;;;;;;;6.70;67.51;97223.85;259910;1103;115145;-69
2021/01/23 06:19:04;;;;;;;20.57;12.97;;;;;;;6.64;66.91;97237.52;259759;1106;115109;-68
2021/01/23 06:24:06;;;;;;;18.27;12.17;;;;;;;6.59;66.79;97227.31;259753;1105;114797;-68
2021/01/23 06:29:09;;;;;;;20.13;12.87;;;;;;;6.53;67.61;97234.85;259766;1105;114740;-66
2021/01/23 06:34:26;;;;;;;22.10;13.55;;;;;;;6.47;67.27;97232.66;259738;1105;114917;-68
2021/01/23 06:39:32;;;;;;;22.73;13.77;;;;;;;6.46;66.73;97244.20;259753;1105;114824;-70
2021/01/23 06:44:35;;;;;;;24.13;14.30;;;;;;;6.41;67.07;97241.87;259881;1104;114837;-66
2021/01/23 06:49:41;;;;;;;21.03;13.40;;;;;;;6.40;66.83;97226.98;259790;1105;115030;-64
2021/01/23 06:54:46;;;;;;;24.97;14.13;;;;;;;6.39;66.73;97228.80;259921;1105;115121;-65
2021/01/23 06:59:49;;;;;;;22.23;13.77;;;;;;;6.36;67.22;97221.09;259918;1105;115300;-65
2021/01/23 07:04:51;;;;;;;22.13;14.70;;;;;;;6.33;67.34;97223.12;259672;1105;115264;-64
2021/01/23 07:09:55;;;;;;;24.90;14.40;;;;;;;6.26;66.43;97233.30;259677;1105;115163;-66
2021/01/23 07:14:57;;;;;;;21.97;13.98;;;;;;;6.22;67.12;97229.20;259784;1105;114808;-66
2021/01/23 07:20:06;;;;;;;20.70;14.37;;;;;;;6.19;67.16;97239.98;259722;1105;114799;-65
2021/01/23 07:25:12;;;;;;;27.47;15.53;;;;;;;6.19;67.55;97239.98;257503;1105;115027;-65
2021/01/23 07:30:18;;;;;;;21.87;13.60;;;;;;;6.20;67.73;97239.02;259760;1105;114815;-63
2021/01/23 07:35:21;;;;;;;25.27;14.40;;;;;;;6.25;68.25;97231.62;259684;1105;115015;-63
2021/01/23 07:40:27;;;;;;;24.53;14.20;;;;;;;6.37;67.40;97230.70;259683;1105;115292;-63
2021/01/23 07:45:30;;;;;;;22.97;13.33;;;;;;;6.46;68.43;97199.28;259717;1105;115101;-66
2021/01/23 07:50:39;;;;;;;20.13;13.40;;;;;;;6.51;67.18;97197.95;259752;1105;115200;-64
2021/01/23 07:55:43;;;;;;;24.27;14.13;;;;;;;6.50;67.71;97206.02;259708;1105;116521;-66
2021/01/23 08:00:46;;;;;;;25.43;15.10;;;;;;;6.51;67.95;97197.95;259729;1105;115263;-66
2021/01/23 08:05:51;;;;;;;23.07;15.07;;;;;;;6.54;67.08;97194.25;259779;1105;115264;-66
2021/01/23 08:10:54;;;;;;;22.02;15.78;;;;;;;6.58;68.47;97190.41;259721;1106;115420;-65
2021/01/23 08:16:13;;;;;;;25.82;16.45;;;;;;;6.60;67.41;97191.15;259734;1105;115761;-67
2021/01/23 08:21:16;;;;;;;24.37;17.57;;;;;;;6.69;68.32;97185.17;259670;1105;115427;-66
2021/01/23 08:26:18;;;;;;;24.03;16.10;;;;;;;6.73;67.84;97172.56;259734;1105;114850;-68
2021/01/23 08:31:24;;;;;;;23.17;15.97;;;;;;;6.79;67.90;97164.14;259864;1105;115166;-66
2021/01/23 08:36:29;;;;;;;25.12;17.05;;;;;;;6.91;67.91;97149.14;259706;1105;115380;-67
2021/01/23 08:41:39;;;;;;;25.17;17.98;;;;;;;7.08;68.76;97133.64;259770;1104;117290;-68
2021/01/23 08:46:44;;;;;;;25.67;17.27;;;;;;;7.24;68.98;97117.41;259740;1105;115348;-67
2021/01/23 08:51:49;;;;;;;23.95;16.37;;;;;;;7.44;68.24;97128.19;259730;1105;114953;-67
2021/01/23 08:56:52;;;;;;;29.00;20.13;;;;;;;7.57;68.14;97128.88;259786;1105;115171;-68
2021/01/23 09:01:55;;;;;;;33.20;20.33;;;;;;;7.61;67.94;97137.41;259747;1105;114870;-67
2021/01/23 09:06:58;;;;;;;32.28;19.15;;;;;;;7.64;68.06;97145.12;259944;1105;115309;-62
2021/01/23 09:12:00;;;;;;;27.33;16.40;;;;;;;7.65;67.34;97142.36;259409;1105;115406;-62
2021/01/23 09:17:02;;;;;;;30.00;18.10;;;;;;;7.66;67.66;97146.68;259688;1106;115063;-63
2021/01/23 09:22:05;;;;;;;29.37;15.40;;;;;;;7.67;67.74;97156.30;260071;1105;114793;-69
2021/01/23 09:27:12;;;;;;;23.77;13.20;;;;;;;7.79;67.40;97157.13;259709;1105;115350;-68
2021/01/23 09:32:21;;;;;;;22.03;14.07;;;;;;;7.91;67.14;97149.98;259699;1105;115177;-72
2021/01/23 09:37:36;;;;;;;23.97;13.83;;;;;;;8.02;67.23;97150.80;259685;1105;116969;-72
2021/01/23 09:42:41;;;;;;;20.87;12.97;;;;;;;8.11;67.08;97154.48;259737;1105;115735;-70
2021/01/23 09:47:45;;;;;;;19.07;13.07;;;;;;;8.17;67.19;97159.28;259723;1109;115665;-66
2021/01/23 09:52:48;;;;;;;21.70;14.23;;;;;;;8.19;67.25;97148.58;259711;1105;115182;-68
2021/01/23 09:57:59;;;;;;;33.15;19.30;;;;;;;8.19;66.88;97144.11;259692;1105;115473;-68
2021/01/23 10:03:02;;;;;;;34.40;18.42;;;;;;;8.18;66.92;97147.70;259643;1105;115257;-71
2021/01/23 10:08:05;;;;;;;28.47;17.87;;;;;;;8.20;67.30;97144.95;259576;1105;115124;-71
2021/01/23 10:13:10;;;;;;;30.17;17.37;;;;;;;8.21;67.29;97157.22;259113;1105;115629;-74
2021/01/23 10:18:23;;;;;;;30.03;18.77;;;;;;;8.23;66.50;97139.40;259801;1105;114843;-72
2021/01/23 10:23:28;;;;;;;33.00;18.57;;;;;;;8.20;66.45;97156.38;260001;1105;115409;-72
2021/01/23 10:28:41;;;;;;;;;;;;;;;8.23;66.44;97156.13;259704;1105;115322;-72
2021/01/23 10:34:11;;;;;;;28.17;18.10;;;;;;;8.27;67.44;97146.95;259819;1104;102305;-72
2021/01/23 10:39:38;;;;;;;;;;;;;;;;;;;;;
2021/01/23 10:44:41;;;;;;;31.17;18.67;;;;;;;8.71;67.18;97147.72;259710;1105;115100;-73
2021/01/23 10:49:45;;;;;;;32.95;19.82;;;;;;;8.87;66.81;97144.61;259767;1105;115111;-73
2021/01/23 10:54:52;;;;;;;31.10;19.10;;;;;;;8.98;67.14;97133.07;259821;1105;115083;-73
2021/01/23 11:00:01;;;;;;;25.97;14.97;;;;;;;9.10;67.25;97105.45;258777;1105;115213;-75
2021/01/23 11:05:17;;;;;;;20.63;12.40;;;;;;;9.30;66.99;97105.53;259702;1105;114996;-74
2021/01/23 11:10:35;;;;;;;;;;;;;;;9.51;67.22;97111.63;259768;1105;115817;-75
2021/01/23 11:15:45;;;;;;;21.68;11.68;;;;;;;9.72;67.11;97103.55;259789;1105;103167;-75
2021/01/23 11:20:59;;;;;;;14.70;9.27;;;;;;;9.94;66.69;97105.10;259684;1105;116280;-74
2021/01/23 11:26:21;;;;;;;;;;;;;;;;;;;;;
2021/01/23 11:38:20;;;;;;;12.60;9.27;;;;;;;10.49;65.52;97097.41;257257;1112;115638;-75
2021/01/23 11:43:22;;;;;;;14.80;9.20;;;;;;;10.58;65.46;97090.41;257569;1109;115285;-76
2021/01/23 11:48:24;;;;;;;15.17;10.00;;;;;;;10.62;65.41;97071.34;259473;1108;115266;-75
2021/01/23 11:53:27;;;;;;;15.27;9.97;;;;;;;10.66;64.75;97069.23;259466;1109;115712;-75
2021/01/23 11:58:29;;;;;;;17.13;11.23;;;;;;;10.68;64.78;97066.45;259709;1108;115043;-76
2021/01/23 12:03:31;;;;;;;19.63;11.67;;;;;;;10.69;65.01;97070.78;258945;1108;115111;-74
2021/01/23 12:08:33;;;;;;;18.23;11.85;;;;;;;10.68;65.12;97067.28;259809;1107;115258;-74
2021/01/23 12:13:36;;;;;;;21.75;12.03;;;;;;;10.65;64.20;97065.73;259781;1108;115227;-74
2021/01/23 12:27:16;;;;;;;19.45;11.80;;;;;;;10.62;64.14;97042.09;260455;1100;104219;-79
2021/01/23 12:32:18;;;;;;;19.17;11.60;;;;;;;10.59;63.79;97053.01;259892;1105;115071;-76
2021/01/23 12:37:21;;;;;;;16.65;9.85;;;;;;;10.56;63.89;97055.98;259788;1105;114965;-75
2021/01/23 12:42:26;;;;;;;15.35;9.48;;;;;;;10.57;63.64;97057.66;259775;1104;115190;-75
2021/01/23 12:47:28;;;;;;;17.15;9.48;;;;;;;10.60;63.90;97051.22;260177;1105;114671;-75
2021/01/23 12:52:31;;;;;;;21.60;11.05;;;;;;;10.62;63.46;97060.70;259862;1105;116035;-75
2021/01/23 12:57:43;;;;;;;19.42;11.10;;;;;;;10.61;63.42;97056.38;260208;1105;114605;-75
2021/01/23 13:02:45;;;;;;;17.60;9.93;;;;;;;10.65;63.90;97041.80;260017;1105;114755;-76
2021/01/23 13:07:48;;;;;;;14.83;7.90;;;;;;;10.68;63.86;97026.55;260141;1105;115205;-76
2021/01/23 13:12:51;;;;;;;8.73;5.05;;;;;;;10.73;63.53;97027.77;260286;1105;114730;-76
2021/01/23 13:17:54;;;;;;;10.60;6.78;;;;;;;10.84;63.22;97022.28;260329;1105;114743;-76
2021/01/23 13:22:57;;;;;;;15.70;8.87;;;;;;;10.95;63.30;97009.77;259122;1105;114596;-73
2021/01/23 13:27:59;;;;;;;13.15;6.95;;;;;;;11.01;62.44;97012.68;260247;1105;114800;-74
2021/01/23 13:33:04;;;;;;;10.50;5.73;;;;;;;11.08;62.67;97011.09;260582;1104;114806;-74
2021/01/23 13:38:07;;;;;;;10.00;5.90;;;;;;;11.15;62.42;97006.02;260060;1105;114930;-74
2021/01/23 13:43:09;;;;;;;11.35;5.78;;;;;;;11.24;62.66;96996.28;260462;1105;115110;-74
2021/01/23 13:48:12;;;;;;;9.10;5.80;;;;;;;11.36;62.03;97011.07;260226;1105;115207;-74
2021/01/23 13:53:15;;;;;;;11.65;7.60;;;;;;;11.46;62.37;97001.19;260273;1105;114926;-74
2021/01/23 13:58:18;;;;;;;9.10;6.30;;;;;;;11.53;62.44;96994.27;260472;1105;115842;-75
2021/01/23 14:03:20;;;;;;;9.57;6.07;;;;;;;11.58;61.17;96997.33;260088;1105;114577;-74
2021/01/23 14:08:22;;;;;;;9.18;5.10;;;;;;;11.58;61.13;97002.66;260309;1104;115234;-74
2021/01/23 14:13:24;;;;;;;11.23;5.67;;;;;;;11.56;61.30;96996.63;260129;1105;114578;-73
2021/01/23 14:18:27;;;;;;;7.95;5.55;;;;;;;11.56;61.24;96996.63;260277;1105;114833;-75
2021/01/23 14:23:29;;;;;;;7.73;5.50;;;;;;;11.55;60.82;96994.97;260184;1105;114618;-74
2021/01/23 14:28:32;;;;;;;10.90;5.60;;;;;;;11.56;61.07;96985.97;260130;1105;114837;-74
2021/01/23 14:33:34;;;;;;;11.55;6.17;;;;;;;11.57;60.65;96992.97;259772;1105;115016;-75
2021/01/23 14:38:36;;;;;;;10.23;5.83;;;;;;;11.55;60.64;96994.97;259950;1105;115102;-75
2021/01/23 14:43:51;;;;;;;10.23;5.78;;;;;;;11.52;60.29;96997.09;260293;1105;115441;-75
2021/01/23 14:48:53;;;;;;;14.37;7.67;;;;;;;11.43;60.27;97009.48;260335;1105;114880;-75
2021/01/23 14:54:00;;;;;;;15.78;8.80;;;;;;;11.34;60.71;97015.70;260280;1105;114737;-74
2021/01/23 14:59:04;;;;;;;15.33;8.47;;;;;;;11.29;60.45;97025.98;260663;1105;114790;-74
2021/01/23 15:04:07;;;;;;;15.60;8.33;;;;;;;11.23;60.08;97040.71;260225;1105;114705;-76
2021/01/23 15:09:10;;;;;;;13.32;7.78;;;;;;;11.16;60.72;97042.30;260729;1105;114458;-73
2021/01/23 15:14:12;;;;;;;13.73;7.80;;;;;;;11.09;60.62;97042.05;260334;1105;115143;-74
2021/01/23 15:19:15;;;;;;;15.43;9.40;;;;;;;11.02;60.79;97032.98;260034;1105;114951;-74
2021/01/23 15:24:18;;;;;;;13.93;8.48;;;;;;;11.00;60.89;97036.77;260228;1105;114946;-73
2021/01/23 15:29:20;;;;;;;17.10;9.83;;;;;;;10.95;60.29;97033.72;256474;1105;115293;-75
2021/01/23 15:34:23;;;;;;;14.73;8.85;;;;;;;10.86;60.13;97030.10;260345;1105;115055;-76
2021/01/23 15:39:25;;;;;;;13.10;7.90;;;;;;;10.79;60.10;97031.67;260327;1105;114869;-75
2021/01/23 15:44:32;;;;;;;12.18;8.25;;;;;;;10.73;60.57;97018.95;260080;1105;114854;-75
2021/01/23 15:49:34;;;;;;;12.73;7.60;;;;;;;10.73;60.57;97029.59;260144;1105;115055;-74
2021/01/23 15:54:37;;;;;;;13.57;7.83;;;;;;;10.71;60.61;97039.56;260313;1105;114792;-74
2021/01/23 15:59:39;;;;;;;13.73;7.70;;;;;;;10.71;61.02;97047.54;257660;1105;115184;-75
2021/01/23 16:04:41;;;;;;;13.77;8.37;;;;;;;10.70;60.72;97035.20;259830;1105;115157;-75
2021/01/23 16:09:47;;;;;;;14.10;9.25;;;;;;;10.66;60.34;97024.02;259601;1105;115378;-75
2021/01/23 16:14:49;;;;;;;15.63;9.30;;;;;;;10.61;59.99;97036.92;260099;1105;115021;-75
2021/01/23 16:19:53;;;;;;;14.70;8.50;;;;;;;10.45;60.31;97042.00;260003;1105;114811;-75
2021/01/23 16:24:56;;;;;;;16.80;10.03;;;;;;;10.27;60.11;97041.91;260552;1105;114770;-75
2021/01/23 16:30:00;;;;;;;18.53;10.17;;;;;;;10.10;60.16;97046.92;260044;1104;115073;-75
2021/01/23 16:35:03;;;;;;;15.35;9.85;;;;;;;10.00;59.88;97053.23;259958;1104;115020;-75
2021/01/23 16:40:07;;;;;;;15.72;10.20;;;;;;;9.84;60.91;97054.61;260712;1104;114864;-75
2021/01/23 16:45:11;;;;;;;16.55;10.65;;;;;;;9.76;60.70;97053.65;260663;1105;115091;-74
2021/01/23 16:50:14;;;;;;;17.80;10.97;;;;;;;9.65;60.70;97047.48;258761;1104;115053;-74
2021/01/23 16:55:18;;;;;;;19.73;11.33;;;;;;;9.56;60.75;97048.31;260366;1104;114645;-74
2021/01/23 17:00:21;;;;;;;23.95;14.98;;;;;;;9.53;61.00;97056.55;260186;1105;114831;-74
2021/01/23 17:05:25;;;;;;;19.98;12.43;;;;;;;9.55;61.48;97067.05;260159;1104;116132;-74
2021/01/23 17:10:28;;;;;;;22.75;14.58;;;;;;;9.53;61.35;97069.83;260602;1105;114635;-74
2021/01/23 17:15:30;;;;;;;27.93;18.12;;;;;;;9.54;61.43;97057.38;260283;1105;114697;-74
2021/01/23 17:20:32;;;;;;;32.37;18.73;;;;;;;9.53;61.52;97061.86;260287;1105;114841;-74
2021/01/23 17:25:35;;;;;;;30.92;19.92;;;;;;;9.59;61.64;97063.14;260255;1105;114568;-75
2021/01/23 17:30:38;;;;;;;30.10;19.87;;;;;;;9.59;61.69;97056.00;259101;1105;115113;-75
2021/01/23 17:35:41;;;;;;;33.80;21.45;;;;;;;9.57;61.83;97055.29;260013;1105;114457;-76
2021/01/23 17:40:44;;;;;;;35.38;20.10;;;;;;;9.53;61.78;97075.13;259857;1104;115039;-75
2021/01/23 17:45:46;;;;;;;32.70;19.97;;;;;;;9.53;61.78;97076.95;259050;1105;115000;-74
2021/01/23 17:50:49;;;;;;;34.95;20.75;;;;;;;9.41;61.76;97077.08;259999;1105;114679;-74
2021/01/23 17:55:51;;;;;;;38.92;21.55;;;;;;;9.33;61.57;97070.76;260174;1105;114837;-75
2021/01/23 18:00:54;;;;;;;41.40;24.07;;;;;;;9.22;61.48;97077.86;260295;1105;114223;-76
2021/01/23 18:05:57;;;;;;;45.85;25.15;;;;;;;9.16;61.63;97088.17;260230;1105;114751;-75
2021/01/23 18:10:59;;;;;;;47.87;25.57;;;;;;;9.06;61.54;97096.09;260342;1105;210766;-75
2021/01/23 18:16:02;;;;;;;44.13;24.87;;;;;;;8.88;61.64;97079.97;260073;1105;114573;-75
2021/01/23 18:21:06;;;;;;;37.98;20.88;;;;;;;8.81;61.95;97089.43;260070;1105;114693;-75
2021/01/23 18:26:11;;;;;;;37.13;20.15;;;;;;;8.75;61.97;97089.95;260249;1105;114394;-76
2021/01/23 18:31:13;;;;;;;36.75;20.25;;;;;;;8.74;62.34;97099.72;260085;1105;114733;-75
2021/01/23 18:36:16;;;;;;;35.40;19.37;;;;;;;8.75;62.39;97109.35;260131;1105;114761;-76
2021/01/23 18:41:21;;;;;;;30.17;16.87;;;;;;;8.72;62.17;97122.87;260499;1104;114311;-75
2021/01/23 18:46:36;;;;;;;30.32;16.25;;;;;;;8.60;61.84;97134.53;260225;1105;115122;-75
2021/01/23 18:51:38;;;;;;;28.37;15.13;;;;;;;8.42;61.91;97121.00;260276;1105;114723;-74
2021/01/23 18:56:42;;;;;;;30.85;16.52;;;;;;;8.30;61.90;97114.91;260263;1105;114655;-75
2021/01/23 19:01:45;;;;;;;32.50;17.20;;;;;;;8.21;61.82;97120.13;260253;1105;114412;-75
2021/01/23 19:06:47;;;;;;;32.57;16.07;;;;;;;8.11;61.95;97119.20;260247;1105;114580;-75
2021/01/23 19:11:50;;;;;;;28.65;15.78;;;;;;;8.05;62.08;97132.01;260136;1105;114529;-76
2021/01/23 19:16:52;;;;;;;30.45;15.58;;;;;;;8.05;62.44;97131.17;260091;1105;114958;-74
2021/01/23 19:21:54;;;;;;;28.20;14.15;;;;;;;8.05;61.70;97142.61;260288;1104;114433;-74
2021/01/23 19:27:00;;;;;;;24.47;13.33;;;;;;;8.00;62.05;97138.64;260047;1105;114529;-75
2021/01/23 19:32:05;;;;;;;29.18;13.45;;;;;;;7.95;61.61;97133.73;260435;1105;115192;-75
2021/01/23 19:37:07;;;;;;;22.13;12.30;;;;;;;7.92;61.98;97143.73;260363;1105;115051;-75
2021/01/23 19:42:10;;;;;;;26.90;12.70;;;;;;;7.88;61.47;97136.98;260620;1105;114477;-76
2021/01/23 19:47:13;;;;;;;21.30;12.00;;;;;;;7.89;61.44;97125.45;260625;1105;114476;-76
2021/01/23 19:52:15;;;;;;;20.32;11.00;;;;;;;7.89;61.23;97107.75;260596;1105;114586;-76
2021/01/23 19:57:18;;;;;;;22.25;11.30;;;;;;;7.86;61.94;97118.59;260460;1104;114813;-76
2021/01/23 20:02:20;;;;;;;20.88;10.10;;;;;;;7.85;61.30;97124.02;260281;1105;114653;-75
2021/01/23 20:07:22;;;;;;;18.70;10.10;;;;;;;7.82;61.56;97120.65;260449;1105;114506;-74
2021/01/23 20:12:24;;;;;;;17.52;9.95;;;;;;;7.79;61.17;97120.06;260622;1105;114563;-75
2021/01/23 20:17:26;;;;;;;17.97;10.17;;;;;;;7.75;61.08;97126.58;260529;1104;114480;-75
2021/01/23 20:22:29;;;;;;;18.12;9.68;;;;;;;7.70;61.51;97128.73;260334;1105;114291;-75
2021/01/23 20:27:31;;;;;;;17.80;10.10;;;;;;;7.65;60.90;97129.13;260659;1105;114312;-75
2021/01/23 20:32:33;;;;;;;20.57;10.28;;;;;;;7.57;61.16;97147.41;260609;1105;114560;-75
2021/01/23 20:37:36;;;;;;;18.85;10.08;;;;;;;7.49;60.83;97149.84;260469;1105;114722;-75
2021/01/23 20:42:38;;;;;;;19.80;11.10;;;;;;;7.45;61.41;97151.06;260608;1105;114515;-75
2021/01/23 20:47:42;;;;;;;23.00;12.67;;;;;;;7.32;61.50;97154.67;259884;1105;114619;-75
2021/01/23 20:52:47;;;;;;;17.32;9.55;;;;;;;7.23;61.44;97171.26;259742;1105;115117;-75
2021/01/23 20:57:50;;;;;;;18.32;10.53;;;;;;;7.25;61.53;97157.92;260234;1105;114754;-75
2021/01/23 21:02:53;;;;;;;21.33;10.13;;;;;;;7.22;61.04;97161.64;259853;1105;115024;-75
2021/01/23 21:07:55;;;;;;;22.20;11.30;;;;;;;7.24;61.52;97158.90;260018;1104;115145;-75
2021/01/23 21:12:57;;;;;;;19.10;10.43;;;;;;;7.21;61.68;97165.27;260205;1105;115230;-74
2021/01/23 21:18:00;;;;;;;23.30;10.90;;;;;;;7.22;61.26;97177.52;260149;1105;115053;-74
2021/01/23 21:23:02;;;;;;;22.77;10.63;;;;;;;7.28;61.90;97178.85;260045;1105;114944;-75
2021/01/23 21:28:05;;;;;;;18.77;10.03;;;;;;;7.27;62.15;97170.08;259894;1105;115090;-75
2021/01/23 21:33:08;;;;;;;19.93;11.00;;;;;;;7.23;61.13;97173.06;260266;1105;114853;-75
2021/01/23 21:38:10;;;;;;;22.43;11.90;;;;;;;7.20;62.13;97175.95;260162;1103;114945;-75
2021/01/23 21:43:13;;;;;;;23.45;12.37;;;;;;;7.15;61.29;97186.90;260001;1105;114933;-75
2021/01/23 21:48:15;;;;;;;21.60;11.90;;;;;;;7.11;61.03;97190.75;260411;1105;114821;-74
2021/01/23 21:53:19;;;;;;;24.57;12.53;;;;;;;7.06;61.55;97191.09;260479;1105;115062;-75
2021/01/23 21:58:24;;;;;;;20.00;11.97;;;;;;;7.06;62.36;97179.67;257931;1103;115426;-76
2021/01/23 22:03:26;;;;;;;21.90;11.67;;;;;;;7.05;62.27;97184.12;257515;1096;118377;-69
2021/01/23 22:08:31;;;;;;;26.52;13.25;;;;;;;7.04;62.43;97185.09;259692;1105;114963;-69
2021/01/23 22:13:33;;;;;;;21.90;11.85;;;;;;;7.02;62.21;97188.81;259444;1105;115129;-69
2021/01/23 22:18:39;;;;;;;25.68;13.15;;;;;;;7.00;62.17;97185.47;259482;1105;115027;-69
2021/01/23 22:23:41;;;;;;;24.85;13.58;;;;;;;6.97;62.75;97183.05;259492;1106;115021;-70
2021/01/23 22:28:45;;;;;;;26.07;14.03;;;;;;;6.94;62.96;97156.84;259143;1107;115044;-70
2021/01/23 22:33:48;;;;;;;26.45;13.68;;;;;;;6.91;63.44;97143.86;259653;1109;115153;-71
2021/01/23 22:38:50;;;;;;;23.90;13.47;;;;;;;6.91;63.61;97152.63;259704;1109;116177;-70
2021/01/23 22:43:52;;;;;;;22.67;13.10;;;;;;;6.93;63.54;97128.70;259693;1109;115533;-69
2021/01/23 22:48:55;;;;;;;31.10;15.90;;;;;;;6.90;63.75;97111.29;259730;1108;115018;-68
2021/01/23 22:53:57;;;;;;;26.67;14.97;;;;;;;6.90;62.80;97123.67;259637;1108;114954;-67
2021/01/23 22:58:59;;;;;;;28.35;16.00;;;;;;;6.85;62.98;97103.70;259714;1108;114876;-68
2021/01/23 23:04:02;;;;;;;27.53;15.13;;;;;;;6.85;63.12;97108.15;259681;1108;115597;-67
2021/01/23 23:09:04;;;;;;;29.83;15.80;;;;;;;6.77;63.22;97098.18;259646;1105;115104;-68
2021/01/23 23:14:08;;;;;;;27.63;14.97;;;;;;;6.68;63.75;97127.96;259766;1105;114846;-69
2021/01/23 23:19:10;;;;;;;32.83;17.07;;;;;;;6.61;64.04;97130.23;259656;1106;114952;-68
2021/01/23 23:24:13;;;;;;;32.42;16.90;;;;;;;6.59;63.78;97112.83;259259;1108;115507;-66
2021/01/23 23:29:15;;;;;;;29.97;16.17;;;;;;;6.56;63.04;97097.20;259759;1109;114771;-67